Time;durP1;ratioP1;P1;durP2;ratioP2;P2;SDS_P1;SDS_P2;PMS_P1;PMS_P2;Temp;Humidity;BMP_temperature;BMP_pressure;BME280_temperature;BME280_humidity;BME280_pressure;Samples;Min_cycle;Max_cycle;Signal;HPM_P1;HPM_P2
2021/09/05 00:01:26;;;;;;;;;;;;;;;12.36;78.25;99835.75;5053605;28;818;-59
2021/09/05 00:03:54;;;;;;;;;;;;;;;12.37;78.81;99840.09;5053680;28;822;-59
2021/09/05 00:06:21;;;;;;;;;;;;;;;12.35;78.47;99832.19;5053621;28;806;-59
2021/09/05 00:08:47;;;;;;;;;;;;;;;12.34;78.85;99838.16;5053508;28;877;-59
2021/09/05 00:11:13;;;;;;;;;;;;;;;12.33;78.36;99829.06;5053558;28;806;-59
2021/09/05 00:13:40;;;;;;;;;;;;;;;12.29;78.66;99825.53;5053467;28;806;-59
2021/09/05 00:16:06;;;;;;;;;;;;;;;12.26;78.53;99832.66;5053458;28;1345;-59
2021/09/05 00:18:33;;;;;;;;;;;;;;;12.28;78.86;99828.72;5053384;28;1993;-59
2021/09/05 00:21:00;;;;;;;;;;;;;;;12.24;78.86;99825.97;5053224;28;877;-59
2021/09/05 00:23:27;;;;;;;;;;;;;;;12.19;78.54;99832.75;5053325;28;802;-59
2021/09/05 00:25:53;;;;;;;;;;;;;;;12.11;78.54;99825.72;5053026;28;857;-59
2021/09/05 00:28:20;;;;;;;;;;;;;;;12.08;78.84;99831.28;5053368;28;858;-59
2021/09/05 00:30:45;;;;;;;;;;;;;;;12.03;79.13;99829.75;5053074;28;838;-59
2021/09/05 00:33:12;;;;;;;;;;;;;;;11.93;79.32;99837.00;5053634;28;889;-59
2021/09/05 00:35:40;;;;;;;;;;;;;;;11.89;79.67;99843.78;5053278;28;802;-59
2021/09/05 00:38:06;;;;;;;;;;;;;;;11.87;80.19;99849.69;5053092;28;1941;-59
2021/09/05 00:40:33;;;;;;;;;;;;;;;11.85;79.58;99843.78;5052727;28;826;-59
2021/09/05 00:42:59;;;;;;;;;;;;;;;11.85;80.43;99846.53;5053126;28;834;-59
2021/09/05 00:45:26;;;;;;;;;;;;;;;11.92;80.34;99852.03;5053640;28;874;-59
2021/09/05 00:47:52;;;;;;;;;;;;;;;11.98;80.29;99850.38;5052788;28;842;-59
2021/09/05 00:50:19;;;;;;;;;;;;;;;11.99;79.88;99848.41;5052717;28;858;-59
2021/09/05 00:52:45;;;;;;;;;;;;;;;11.98;79.97;99855.94;5052651;28;799;-59
2021/09/05 00:55:13;;;;;;;;;;;;;;;11.97;80.16;99862.69;5052646;28;806;-59
2021/09/05 00:57:43;;;;;;;;;;;;;;;11.98;80.19;99861.47;5052445;28;854;-59
2021/09/05 01:00:10;;;;;;;;;;;;;;;12.02;80.44;99866.97;5052880;28;1882;-59
2021/09/05 01:02:37;;;;;;;;;;;;;;;12.02;80.16;99869.75;5052673;28;835;-59
2021/09/05 01:05:04;;;;;;;;;;;;;;;12.00;79.88;99866.59;5052691;28;831;-59
2021/09/05 01:07:31;;;;;;;;;;;;;;;11.99;80.49;99863.06;5052855;28;779;-60
2021/09/05 01:09:58;;;;;;;;;;;;;;;11.98;80.14;99867.00;5052433;28;807;-59
2021/09/05 01:12:24;;;;;;;;;;;;;;;12.01;80.37;99868.97;5051249;28;1341;-59
2021/09/05 01:14:50;;;;;;;;;;;;;;;12.03;80.16;99868.53;5052667;28;910;-59
2021/09/05 01:17:16;;;;;;;;;;;;;;;11.99;80.15;99865.03;5052365;28;1369;-59
2021/09/05 01:19:50;;;;;;;;;;;;;;;11.97;80.24;99865.44;5052389;28;1910;-60
2021/09/05 01:22:17;;;;;;;;;;;;;;;11.96;80.34;99865.84;5050798;28;1299;-59
2021/09/05 01:24:43;;;;;;;;;;;;;;;11.90;80.28;99862.72;5052050;28;810;-59
2021/09/05 01:27:10;;;;;;;;;;;;;;;11.88;80.93;99865.13;5051960;28;901;-59
2021/09/05 01:29:36;;;;;;;;;;;;;;;11.84;80.85;99861.56;5052074;28;882;-59
2021/09/05 01:32:03;;;;;;;;;;;;;;;11.82;80.93;99858.41;5051946;28;889;-59
2021/09/05 01:34:30;;;;;;;;;;;;;;;11.81;80.87;99860.41;5051921;28;842;-59
2021/09/05 01:36:56;;;;;;;;;;;;;;;11.84;81.13;99864.34;5051957;28;802;-59
2021/09/05 01:39:23;;;;;;;;;;;;;;;11.82;80.83;99870.31;5051834;28;1945;-59
2021/09/05 01:41:50;;;;;;;;;;;;;;;11.81;81.41;99865.94;5051847;28;811;-59
2021/09/05 01:44:20;;;;;;;;;;;;;;;11.81;81.47;99863.19;5051893;28;974;-59
2021/09/05 01:46:47;;;;;;;;;;;;;;;11.82;81.20;99859.22;5051744;28;803;-59
2021/09/05 01:49:13;;;;;;;;;;;;;;;11.85;81.33;99858.41;5051752;28;857;-59
2021/09/05 01:51:40;;;;;;;;;;;;;;;11.89;81.36;99861.16;5051546;28;803;-59
2021/09/05 01:54:05;;;;;;;;;;;;;;;11.87;80.98;99858.00;5051145;28;798;-59
2021/09/05 01:56:32;;;;;;;;;;;;;;;11.85;81.35;99858.41;5051440;28;908;-59
2021/09/05 01:59:01;;;;;;;;;;;;;;;11.82;81.49;99862.00;5051580;28;1890;-59
2021/09/05 02:01:29;;;;;;;;;;;;;;;11.81;81.49;99856.84;5051584;28;881;-59
2021/09/05 02:03:56;;;;;;;;;;;;;;;11.77;81.54;99858.88;5050271;28;1349;-59
2021/09/05 02:06:23;;;;;;;;;;;;;;;11.72;81.33;99860.09;5051553;28;881;-59
2021/09/05 02:08:49;;;;;;;;;;;;;;;11.74;81.78;99854.16;5051483;28;794;-60
2021/09/05 02:11:16;;;;;;;;;;;;;;;11.73;81.82;99856.13;5051513;28;889;-59
2021/09/05 02:13:42;;;;;;;;;;;;;;;11.73;81.84;99856.13;5050154;28;1287;-59
2021/09/05 02:16:09;;;;;;;;;;;;;;;11.74;81.89;99857.72;5051514;28;1197;-59
2021/09/05 02:18:35;;;;;;;;;;;;;;;11.73;81.93;99855.34;5051406;28;1906;-59
2021/09/05 02:21:02;;;;;;;;;;;;;;;11.60;81.55;99852.28;5051444;28;814;-59
2021/09/05 02:23:28;;;;;;;;;;;;;;;11.45;81.95;99854.38;5051341;28;842;-59
2021/09/05 02:25:55;;;;;;;;;;;;;;;11.35;82.47;99858.81;5051348;28;802;-59
2021/09/05 02:28:21;;;;;;;;;;;;;;;11.28;82.71;99858.84;5051705;28;952;-59
2021/09/05 02:30:48;;;;;;;;;;;;;;;11.30;83.03;99858.47;5051865;28;807;-59
2021/09/05 02:33:14;;;;;;;;;;;;;;;11.37;83.03;99859.19;5051556;28;802;-59
2021/09/05 02:35:40;;;;;;;;;;;;;;;11.41;82.67;99856.38;5051601;28;822;-60
2021/09/05 02:38:07;;;;;;;;;;;;;;;11.49;83.08;99860.69;5051129;28;1890;-59
2021/09/05 02:40:34;;;;;;;;;;;;;;;11.57;83.11;99853.91;5051188;28;822;-59
2021/09/05 02:43:00;;;;;;;;;;;;;;;11.62;83.09;99861.75;5051392;28;823;-59
2021/09/05 02:45:27;;;;;;;;;;;;;;;11.64;83.23;99859.38;5051159;28;826;-59
2021/09/05 02:47:54;;;;;;;;;;;;;;;11.68;83.30;99858.56;5051062;28;904;-59
2021/09/05 02:50:21;;;;;;;;;;;;;;;11.65;82.94;99866.50;5051089;28;854;-59
2021/09/05 02:52:48;;;;;;;;;;;;;;;11.61;83.33;99860.19;5050989;28;850;-59
2021/09/05 02:55:14;;;;;;;;;;;;;;;11.63;82.94;99857.03;5050963;28;822;-59
2021/09/05 02:57:41;;;;;;;;;;;;;;;11.57;83.11;99856.66;5050996;28;1009;-59
2021/09/05 03:00:08;;;;;;;;;;;;;;;11.58;83.63;99860.22;5050947;28;1886;-60
2021/09/05 03:02:34;;;;;;;;;;;;;;;11.57;83.10;99851.13;5051043;28;791;-59
2021/09/05 03:05:01;;;;;;;;;;;;;;;11.51;83.53;99852.75;5053608;28;878;-59
2021/09/05 03:07:26;;;;;;;;;;;;;;;11.45;83.77;99844.09;5054704;28;814;-59
2021/09/05 03:09:53;;;;;;;;;;;;;;;11.39;83.53;99854.06;5054657;28;862;-59
2021/09/05 03:12:23;;;;;;;;;;;;;;;11.34;83.47;99850.91;5054627;28;823;-59
2021/09/05 03:14:50;;;;;;;;;;;;;;;11.27;83.77;99845.44;5054545;28;895;-59
2021/09/05 03:17:17;;;;;;;;;;;;;;;11.15;83.91;99841.16;5054322;28;1428;-59
2021/09/05 03:19:43;;;;;;;;;;;;;;;11.01;84.11;99847.59;5054316;28;1914;-59
2021/09/05 03:22:10;;;;;;;;;;;;;;;10.93;84.60;99848.81;5054717;28;881;-59
2021/09/05 03:24:37;;;;;;;;;;;;;;;10.92;84.91;99853.53;5054169;28;897;-59
2021/09/05 03:27:03;;;;;;;;;;;;;;;11.00;84.69;99857.84;5054391;28;865;-59
2021/09/05 03:29:30;;;;;;;;;;;;;;;11.03;85.13;99859.81;5054233;28;885;-59
2021/09/05 03:31:57;;;;;;;;;;;;;;;11.04;84.58;99866.91;5054243;28;822;-59
2021/09/05 03:34:23;;;;;;;;;;;;;;;11.00;84.61;99865.34;5054141;28;871;-59
2021/09/05 03:36:49;;;;;;;;;;;;;;;10.98;84.60;99864.97;5054482;28;810;-59
2021/09/05 03:39:15;;;;;;;;;;;;;;;11.16;85.07;99862.09;5054093;28;1890;-59
2021/09/05 03:41:41;;;;;;;;;;;;;;;11.35;85.50;99869.88;5054041;28;851;-59
2021/09/05 03:44:07;;;;;;;;;;;;;;;11.55;85.01;99867.34;5054059;28;854;-59
2021/09/05 03:46:34;;;;;;;;;;;;;;;11.58;84.44;99877.59;5053983;28;850;-59
2021/09/05 03:49:00;;;;;;;;;;;;;;;11.50;84.05;99883.59;5054010;28;795;-59
2021/09/05 03:51:27;;;;;;;;;;;;;;;11.34;84.35;99884.91;5053812;28;853;-59
2021/09/05 03:53:53;;;;;;;;;;;;;;;11.43;84.93;99889.97;5053813;28;877;-59
2021/09/05 03:56:20;;;;;;;;;;;;;;;11.49;84.50;99890.34;5053784;28;837;-59
2021/09/05 03:58:46;;;;;;;;;;;;;;;11.40;84.40;99894.34;5053723;28;1957;-59
2021/09/05 04:01:13;;;;;;;;;;;;;;;11.35;84.76;99896.75;5053911;28;802;-59
2021/09/05 04:03:40;;;;;;;;;;;;;;;11.36;84.78;99895.56;5053674;28;791;-59
2021/09/05 04:06:07;;;;;;;;;;;;;;;11.41;84.82;99900.66;5053633;28;838;-59
2021/09/05 04:08:45;;;;;;;;;;;;;;;11.50;84.78;99903.78;5053561;28;815;-59
2021/09/05 04:11:12;;;;;;;;;;;;;;;11.58;84.70;99908.06;5053546;28;932;-59
2021/09/05 04:13:38;;;;;;;;;;;;;;;11.65;84.47;99913.56;5053479;28;798;-59
2021/09/05 04:16:05;;;;;;;;;;;;;;;11.78;84.32;99911.09;5052614;28;1435;-59
2021/09/05 04:18:31;;;;;;;;;;;;;;;11.94;84.39;99910.56;5053258;28;1918;-59
2021/09/05 04:20:57;;;;;;;;;;;;;;;12.17;83.71;99911.97;5053344;28;806;-59
2021/09/05 04:23:24;;;;;;;;;;;;;;;12.34;83.42;99913.75;5053300;28;811;-59
2021/09/05 04:25:51;;;;;;;;;;;;;;;12.47;82.98;99908.47;5053243;28;906;-59
2021/09/05 04:28:18;;;;;;;;;;;;;;;12.60;82.53;99903.19;5053217;28;798;-59
2021/09/05 04:30:44;;;;;;;;;;;;;;;12.70;82.35;99907.81;5053164;28;830;-59
2021/09/05 04:33:11;;;;;;;;;;;;;;;12.80;81.92;99911.66;5053109;28;865;-59
2021/09/05 04:35:38;;;;;;;;;;;;;;;12.90;81.65;99907.97;5053103;28;807;-59
2021/09/05 04:38:04;;;;;;;;;;;;;;;13.04;81.49;99912.56;5052941;28;1951;-59
2021/09/05 04:40:31;;;;;;;;;;;;;;;13.18;81.06;99923.44;5052944;28;885;-59
2021/09/05 04:42:57;;;;;;;;;;;;;;;13.37;80.66;99918.47;5052901;28;802;-59
2021/09/05 04:45:24;;;;;;;;;;;;;;;13.59;80.42;99928.06;5052833;28;806;-59
2021/09/05 04:47:51;;;;;;;;;;;;;;;13.83;79.70;99926.09;5052851;28;795;-59
2021/09/05 04:50:18;;;;;;;;;;;;;;;14.07;78.80;99931.66;5052737;28;822;-59
2021/09/05 04:52:44;;;;;;;;;;;;;;;14.21;77.65;99925.84;5051335;28;798;-59
2021/09/05 04:55:11;;;;;;;;;;;;;;;14.36;77.01;99931.94;5052903;28;846;-59
2021/09/05 04:57:37;;;;;;;;;;;;;;;14.54;75.91;99936.38;5052629;28;866;-60
2021/09/05 05:00:04;;;;;;;;;;;;;;;14.68;75.29;99942.50;5052536;28;1957;-59
2021/09/05 05:02:30;;;;;;;;;;;;;;;14.82;74.76;99941.41;5052545;28;802;-59
2021/09/05 05:04:56;;;;;;;;;;;;;;;14.97;74.43;99933.56;5052481;28;799;-59
2021/09/05 05:07:23;;;;;;;;;;;;;;;15.14;74.19;99939.97;5052411;28;833;-59
2021/09/05 05:17:31;;;;;;;;;;;;;;;16.07;70.36;99953.78;5004471;28;1447;-53
2021/09/05 05:19:58;;;;;;;;;;;;;;;16.56;68.59;99950.91;5012905;28;1974;-53
2021/09/05 05:22:24;;;;;;;;;;;;;;;17.02;66.74;99954.44;5012838;28;865;-55
2021/09/05 05:24:51;;;;;;;;;;;;;;;17.26;66.39;99957.75;5012470;28;921;-54
2021/09/05 05:27:17;;;;;;;;;;;;;;;17.47;65.48;99947.91;5012297;28;811;-53
2021/09/05 05:29:44;;;;;;;;;;;;;;;17.75;64.23;99951.03;5012319;28;910;-54
2021/09/05 05:32:11;;;;;;;;;;;;;;;17.89;63.68;99947.03;5012406;28;842;-54
2021/09/05 05:34:38;;;;;;;;;;;;;;;18.00;63.55;99952.28;5012260;28;826;-55
2021/09/05 05:37:04;;;;;;;;;;;;;;;18.14;62.97;99944.19;5012257;28;854;-54
2021/09/05 05:39:31;;;;;;;;;;;;;;;18.38;62.40;99945.81;5012118;28;1940;-55
2021/09/05 05:41:58;;;;;;;;;;;;;;;18.72;61.53;99936.59;5012176;28;863;-55
2021/09/05 05:44:24;;;;;;;;;;;;;;;19.14;60.57;99937.06;5012161;28;815;-54
2021/09/05 05:46:50;;;;;;;;;;;;;;;19.50;59.35;99930.06;4994421;28;1299;-53
2021/09/05 05:49:17;;;;;;;;;;;;;;;19.67;58.91;99927.78;5012280;28;815;-54
2021/09/05 05:51:43;;;;;;;;;;;;;;;19.84;59.13;99933.94;5012094;28;803;-55
2021/09/05 05:54:10;;;;;;;;;;;;;;;20.15;58.02;99930.25;5012060;28;831;-55
2021/09/05 05:56:36;;;;;;;;;;;;;;;20.68;56.94;99927.19;5011971;28;1165;-55
2021/09/05 05:59:04;;;;;;;;;;;;;;;21.49;54.88;99920.31;5011867;28;1894;-55
2021/09/05 06:01:32;;;;;;;;;;;;;;;22.33;52.89;99912.94;5011778;28;900;-54
2021/09/05 06:03:59;;;;;;;;;;;;;;;22.99;50.32;99914.69;5011954;28;819;-55
2021/09/05 06:06:27;;;;;;;;;;;;;;;23.47;48.47;99914.47;5011853;28;842;-54
2021/09/05 06:08:54;;;;;;;;;;;;;;;24.05;47.09;99912.75;5011884;28;852;-55
2021/09/05 06:11:20;;;;;;;;;;;;;;;24.83;45.04;99916.97;5011852;28;787;-56
2021/09/05 06:13:47;;;;;;;;;;;;;;;25.50;42.64;99914.00;5011854;28;890;-55
2021/09/05 06:16:13;;;;;;;;;;;;;;;26.09;40.84;99918.19;5011721;28;1223;-56
2021/09/05 06:18:40;;;;;;;;;;;;;;;26.94;39.30;99916.41;5011702;28;1906;-56
2021/09/05 06:21:07;;;;;;;;;;;;;;;27.64;38.30;99917.44;5011775;28;811;-56
2021/09/05 06:23:32;;;;;;;;;;;;;;;27.88;34.01;99919.72;5011729;28;858;-56
2021/09/05 06:25:58;;;;;;;;;;;;;;;28.08;31.37;99930.00;5011708;28;854;-56
2021/09/05 06:28:25;;;;;;;;;;;;;;;27.75;30.06;99933.69;5011696;28;893;-56
2021/09/05 06:30:51;;;;;;;;;;;;;;;27.86;30.56;99933.69;5011574;28;986;-56
2021/09/05 06:33:18;;;;;;;;;;;;;;;27.94;30.40;99927.47;5011692;28;827;-56
2021/09/05 06:35:45;;;;;;;;;;;;;;;27.96;28.96;99937.03;5011692;28;819;-56
2021/09/05 06:38:12;;;;;;;;;;;;;;;28.00;29.21;99942.44;5011473;28;1890;-56
2021/09/05 06:40:39;;;;;;;;;;;;;;;28.08;28.14;99935.69;5015403;28;812;-57
2021/09/05 06:43:06;;;;;;;;;;;;;;;28.23;28.28;99940.28;5015667;28;850;-56
2021/09/05 06:45:32;;;;;;;;;;;;;;;28.39;28.14;99942.28;5015277;28;866;-56
2021/09/05 06:47:59;;;;;;;;;;;;;;;28.62;27.64;99945.81;5015340;28;862;-56
2021/09/05 06:50:25;;;;;;;;;;;;;;;28.71;27.67;99945.50;5015485;28;874;-56
2021/09/05 06:52:51;;;;;;;;;;;;;;;28.42;27.95;99943.28;5015241;28;920;-56
2021/09/05 06:55:18;;;;;;;;;;;;;;;28.64;27.82;99942.47;5015242;28;815;-57
2021/09/05 06:57:44;;;;;;;;;;;;;;;29.17;27.71;99948.84;5015198;28;846;-57
2021/09/05 07:00:11;;;;;;;;;;;;;;;29.78;27.43;99943.91;5015065;28;1886;-57
2021/09/05 07:02:38;;;;;;;;;;;;;;;29.99;25.10;99952.00;5015031;28;938;-57
2021/09/05 07:05:05;;;;;;;;;;;;;;;29.99;23.97;99952.75;5015040;28;842;-57
2021/09/05 07:07:31;;;;;;;;;;;;;;;29.91;23.97;99958.31;5015119;28;1269;-57
2021/09/05 07:09:58;;;;;;;;;;;;;;;29.86;24.51;99950.56;5014929;28;897;-57
2021/09/05 07:12:25;;;;;;;;;;;;;;;29.83;23.83;99963.03;5015035;28;822;-57
2021/09/05 07:14:51;;;;;;;;;;;;;;;29.77;23.92;99964.41;5014678;28;900;-57
2021/09/05 07:17:18;;;;;;;;;;;;;;;29.94;24.02;99967.84;5014636;28;1417;-57
2021/09/05 07:19:45;;;;;;;;;;;;;;;29.81;23.18;99965.66;5014739;28;1914;-57
2021/09/05 07:22:12;;;;;;;;;;;;;;;29.87;24.54;99968.44;5014975;28;858;-57
2021/09/05 07:24:39;;;;;;;;;;;;;;;30.07;23.41;99970.03;5014726;28;803;-57
2021/09/05 07:27:05;;;;;;;;;;;;;;;29.83;23.94;99970.78;5014959;28;795;-57
2021/09/05 07:29:32;;;;;;;;;;;;;;;30.07;24.30;99972.88;5014691;28;815;-57
2021/09/05 07:31:58;;;;;;;;;;;;;;;30.17;23.33;99973.28;5014748;28;865;-57
2021/09/05 07:34:24;;;;;;;;;;;;;;;29.85;23.87;99979.56;5014473;28;939;-57
2021/09/05 07:36:51;;;;;;;;;;;;;;;30.02;24.22;99985.09;5014453;28;827;-57
2021/09/05 07:39:18;;;;;;;;;;;;;;;30.22;23.74;99981.78;5014917;28;1893;-57
2021/09/05 07:41:45;;;;;;;;;;;;;;;30.44;23.72;99983.59;5014457;28;862;-56
2021/09/05 07:44:11;;;;;;;;;;;;;;;30.49;23.54;99976.28;5014675;28;826;-57
2021/09/05 07:46:37;;;;;;;;;;;;;;;30.68;23.87;99977.09;5014488;28;926;-57
2021/09/05 07:49:04;;;;;;;;;;;;;;;30.72;23.21;99983.22;5014589;28;850;-56
2021/09/05 07:51:30;;;;;;;;;;;;;;;31.07;22.46;99986.44;5013136;28;907;-57
2021/09/05 07:53:57;;;;;;;;;;;;;;;31.17;22.49;99983.94;5014140;28;854;-57
2021/09/05 07:56:24;;;;;;;;;;;;;;;30.96;22.78;99990.22;5014149;28;806;-56
2021/09/05 07:58:50;;;;;;;;;;;;;;;30.71;22.21;99992.34;4996388;28;1885;-57
2021/09/05 08:01:17;;;;;;;;;;;;;;;30.10;22.76;99983.22;5014012;28;893;-55
2021/09/05 08:03:44;;;;;;;;;;;;;;;28.50;25.13;99986.97;5013956;28;846;-56
2021/09/05 08:06:10;;;;;;;;;;;;;;;27.72;26.41;99985.84;5013986;28;866;-56
2021/09/05 08:08:37;;;;;;;;;;;;;;;28.03;26.40;99995.34;5013737;28;861;-55
2021/09/05 08:11:04;;;;;;;;;;;;;;;29.37;25.00;99992.44;5013762;28;1013;-56
2021/09/05 08:13:31;;;;;;;;;;;;;;;29.70;24.90;99982.81;5013620;28;1180;-56
2021/09/05 08:16:01;;;;;;;;;;;;;;;30.56;23.41;99978.53;5013612;28;1248;-57
2021/09/05 08:18:33;;;;;;;;;;;;;;;31.01;22.56;99974.31;5014625;28;1914;-57
2021/09/05 08:20:59;;;;;;;;;;;;;;;31.21;22.49;99981.53;5013609;28;855;-56
2021/09/05 08:23:26;;;;;;;;;;;;;;;30.65;23.43;99983.84;5013549;28;842;-56
2021/09/05 08:25:53;;;;;;;;;;;;;;;28.85;25.90;99985.50;5013574;28;877;-56
2021/09/05 08:28:19;;;;;;;;;;;;;;;28.54;26.56;99978.16;5013386;28;864;-56
2021/09/05 08:30:47;;;;;;;;;;;;;;;27.60;27.26;99987.91;5013534;28;838;-55
2021/09/05 08:33:15;;;;;;;;;;;;;;;27.88;27.27;99975.75;5013274;28;851;-56
2021/09/05 08:35:42;;;;;;;;;;;;;;;28.28;26.83;99976.44;5013362;28;795;-56
2021/09/05 08:38:08;;;;;;;;;;;;;;;28.42;27.03;99977.41;5013109;28;1886;-56
2021/09/05 08:40:38;;;;;;;;;;;;;;;28.23;28.10;99978.00;5013319;28;846;-56
2021/09/05 08:43:05;;;;;;;;;;;;;;;28.15;27.85;99977.00;5013387;28;807;-57
2021/09/05 08:45:32;;;;;;;;;;;;;;;28.34;27.64;99976.44;5013115;28;930;-57
2021/09/05 08:51:01;;;;;;;;;;;;;;;27.97;28.55;99983.22;5013542;28;680;-56
2021/09/05 08:53:28;;;;;;;;;;;;;;;26.97;30.03;99985.50;5013501;28;842;-53
2021/09/05 08:55:55;;;;;;;;;;;;;;;26.22;30.32;99972.34;5013017;28;983;-54
2021/09/05 08:58:22;;;;;;;;;;;;;;;26.13;30.95;99972.56;5013459;28;1949;-55
2021/09/05 09:00:49;;;;;;;;;;;;;;;26.39;30.66;99974.47;5013328;28;887;-55
2021/09/05 09:03:19;;;;;;;;;;;;;;;26.58;29.97;99972.00;5013019;28;810;-56
2021/09/05 09:05:49;;;;;;;;;;;;;;;26.98;29.53;99970.06;5012865;28;979;-55
2021/09/05 09:08:16;;;;;;;;;;;;;;;26.40;30.78;99970.38;5012738;28;827;-54
2021/09/05 09:10:54;;;;;;;;;;;;;;;26.01;31.48;99971.72;5012817;28;795;-54
2021/09/05 09:13:24;;;;;;;;;;;;;;;26.06;30.12;99978.69;5012865;28;862;-55
2021/09/05 09:15:50;;;;;;;;;;;;;;;27.02;28.16;99974.19;5012745;28;1287;-56
2021/09/05 09:18:23;;;;;;;;;;;;;;;28.01;28.37;99963.84;5012533;28;1919;-57
2021/09/05 09:20:50;;;;;;;;;;;;;;;29.08;26.72;99960.50;5012618;28;865;-57
2021/09/05 09:23:18;;;;;;;;;;;;;;;29.38;25.27;99948.41;5012477;28;865;-57
2021/09/05 09:26:04;;;;;;;;;;;;;;;28.88;26.45;99953.16;5012530;28;807;-57
2021/09/05 09:28:30;;;;;;;;;;;;;;;27.41;28.28;99953.59;5012506;28;842;-56
2021/09/05 09:30:57;;;;;;;;;;;;;;;26.50;29.76;99963.19;5012918;28;788;-53
2021/09/05 09:33:25;;;;;;;;;;;;;;;26.18;30.71;99963.31;5012929;28;787;-53
2021/09/05 09:35:52;;;;;;;;;;;;;;;26.97;29.64;99960.78;5012239;28;901;-56
2021/09/05 09:38:19;;;;;;;;;;;;;;;27.49;29.47;99971.66;5012272;28;1894;-57
2021/09/05 09:40:47;;;;;;;;;;;;;;;27.13;30.23;99959.22;5012107;28;1148;-55
2021/09/05 09:43:21;;;;;;;;;;;;;;;26.63;30.72;99972.03;5012032;28;934;-53
2021/09/05 09:45:48;;;;;;;;;;;;;;;26.41;30.85;99974.75;5012056;28;922;-54
2021/09/05 09:48:26;;;;;;;;;;;;;;;26.22;31.58;99971.56;5012189;28;945;-54
2021/09/05 09:51:01;;;;;;;;;;;;;;;26.38;31.57;99972.94;5012255;28;991;-55
2021/09/05 09:53:28;;;;;;;;;;;;;;;27.01;30.70;99969.00;5012021;28;897;-56
2021/09/05 09:56:01;;;;;;;;;;;;;;;27.17;29.98;99961.81;5012001;28;874;-56
2021/09/05 10:01:54;;;;;;;;;;;;;;;26.35;30.47;99974.75;5012040;28;625;-55
2021/09/05 10:04:21;;;;;;;;;;;;;;;26.03;31.39;99968.38;5011889;28;1081;-53
2021/09/05 10:06:48;;;;;;;;;;;;;;;26.04;31.26;99972.75;5011936;28;803;-53
2021/09/05 10:09:18;;;;;;;;;;;;;;;25.79;31.79;99972.31;5011833;28;807;-54
2021/09/05 10:11:44;;;;;;;;;;;;;;;25.60;31.92;99973.97;5011807;28;903;-54
2021/09/05 10:14:12;;;;;;;;;;;;;;;25.51;32.24;99974.19;5011011;28;799;-52
2021/09/05 10:16:42;;;;;;;;;;;;;;;25.54;32.02;99976.00;5011813;28;1304;-54
2021/09/05 10:19:10;;;;;;;;;;;;;;;26.12;31.51;99976.69;5011720;28;1918;-55
2021/09/05 10:21:37;;;;;;;;;;;;;;;26.71;29.87;99986.47;5011725;28;815;-56
2021/09/05 10:24:03;;;;;;;;;;;;;;;26.76;30.34;99985.72;5011778;28;855;-54
2021/09/05 10:26:30;;;;;;;;;;;;;;;26.65;30.41;99982.84;5011652;28;914;-53
2021/09/05 10:28:57;;;;;;;;;;;;;;;26.61;31.04;99988.78;5011560;28;894;-53
2021/09/05 10:31:26;;;;;;;;;;;;;;;26.65;31.09;99977.16;5011538;28;909;-54
2021/09/05 10:33:52;;;;;;;;;;;;;;;26.60;31.32;99983.59;5011671;28;807;-53
2021/09/05 10:36:19;;;;;;;;;;;;;;;26.61;30.72;99974.59;5011480;28;890;-55
2021/09/05 10:38:46;;;;;;;;;;;;;;;26.55;31.34;99975.84;5011369;28;1926;-54
2021/09/05 10:41:14;;;;;;;;;;;;;;;26.86;31.15;99970.03;5011501;28;811;-55
2021/09/05 10:43:51;;;;;;;;;;;;;;;27.89;30.23;99961.06;4993962;28;1547;-58
2021/09/05 10:46:21;;;;;;;;;;;;;;;28.75;28.79;99959.44;5011823;28;835;-56
2021/09/05 10:48:49;;;;;;;;;;;;;;;28.23;27.63;99960.16;5011414;28;906;-57
2021/09/05 10:51:17;;;;;;;;;;;;;;;27.22;28.54;99967.50;5011371;28;943;-55
2021/09/05 10:53:52;;;;;;;;;;;;;;;26.74;30.02;99967.69;5011463;28;814;-56
2021/09/05 10:56:20;;;;;;;;;;;;;;;26.73;30.33;99971.78;5011948;28;883;-53
2021/09/05 10:58:48;;;;;;;;;;;;;;;26.86;30.19;99969.25;5011527;28;1894;-55
2021/09/05 11:01:23;;;;;;;;;;;;;;;27.40;29.77;99963.41;5011535;28;831;-57
2021/09/05 11:04:08;;;;;;;;;;;;;;;28.63;27.75;99958.72;4993962;28;979;-58
2021/09/05 11:06:34;;;;;;;;;;;;;;;29.41;26.91;99961.59;5011348;28;822;-58
2021/09/05 11:09:24;;;;;;;;;;;;;;;29.93;26.16;99967.06;5011366;28;799;-58
2021/09/05 11:12:07;;;;;;;;;;;;;;;30.43;24.46;99975.63;5011325;28;807;-58
2021/09/05 11:17:38;;;;;;;;;;;;;;;29.54;24.64;99958.13;4994212;28;1189;-56
2021/09/05 11:20:05;;;;;;;;;;;;;;;29.37;25.36;99959.03;5010878;28;1910;-55
2021/09/05 11:22:32;;;;;;;;;;;;;;;29.57;23.70;99963.50;5011153;28;815;-56
2021/09/05 11:25:18;;;;;;;;;;;;;;;28.76;24.90;99960.97;5012178;28;1267;-54
2021/09/05 11:27:54;;;;;;;;;;;;;;;27.97;26.66;99952.75;5014978;28;851;-54
2021/09/05 11:30:21;;;;;;;;;;;;;;;27.85;27.43;99946.34;5014477;28;870;-54
2021/09/05 11:32:48;;;;;;;;;;;;;;;28.60;26.74;99950.50;5014850;28;839;-55
2021/09/05 11:35:15;;;;;;;;;;;;;;;29.23;25.20;99934.56;5014556;28;783;-55
2021/09/05 11:37:44;;;;;;;;;;;;;;;29.97;24.47;99940.34;5014448;28;875;-56
2021/09/05 11:40:12;;;;;;;;;;;;;;;30.53;23.63;99931.13;5014288;28;1906;-56
2021/09/05 11:42:44;;;;;;;;;;;;;;;30.83;22.83;99916.72;5014403;28;791;-56
2021/09/05 11:45:12;;;;;;;;;;;;;;;31.07;21.64;99926.50;5014257;28;929;-57
2021/09/05 11:47:39;;;;;;;;;;;;;;;31.28;22.27;99921.72;5014188;28;914;-56
2021/09/05 11:50:06;;;;;;;;;;;;;;;31.48;22.44;99925.31;5014224;28;851;-56
2021/09/05 11:52:33;;;;;;;;;;;;;;;30.58;21.84;99918.88;5014506;28;831;-55
2021/09/05 11:55:07;;;;;;;;;;;;;;;29.59;23.22;99917.41;4996796;28;819;-54
2021/09/05 11:57:35;;;;;;;;;;;;;;;29.09;23.39;99917.34;5014504;28;807;-53
2021/09/05 12:00:04;;;;;;;;;;;;;;;28.97;24.00;99927.22;5014523;28;1882;-54
2021/09/05 12:02:32;;;;;;;;;;;;;;;28.92;24.00;99928.06;5013988;28;870;-54
2021/09/05 12:04:59;;;;;;;;;;;;;;;29.14;24.12;99903.59;5014031;28;795;-53
2021/09/05 12:07:26;;;;;;;;;;;;;;;28.75;24.13;99916.78;5014089;28;959;-54
2021/09/05 12:10:11;;;;;;;;;;;;;;;27.93;24.47;99920.25;5013730;28;839;-54
2021/09/05 12:12:41;;;;;;;;;;;;;;;27.17;25.61;99920.03;5014180;28;795;-53
2021/09/05 12:15:12;;;;;;;;;;;;;;;26.63;26.46;99923.84;5013933;28;1263;-53
2021/09/05 12:17:42;;;;;;;;;;;;;;;26.32;26.55;99932.47;5013744;28;1227;-53
2021/09/05 12:20:09;;;;;;;;;;;;;;;26.01;26.57;99926.41;4974675;28;1906;-53
2021/09/05 12:22:46;;;;;;;;;;;;;;;25.97;27.06;99927.94;4974595;28;1115;-52
2021/09/05 12:25:18;;;;;;;;;;;;;;;26.76;26.50;99908.41;4974705;28;854;-54
2021/09/05 12:28:14;;;;;;;;;;;;;;;27.69;26.22;99915.88;4974574;28;831;-54
2021/09/05 12:30:50;;;;;;;;;;;;;;;28.37;24.35;99910.75;4962031;28;1400;-55
2021/09/05 12:33:18;;;;;;;;;;;;;;;28.74;24.16;99903.84;4974642;28;993;-55
2021/09/05 12:35:46;;;;;;;;;;;;;;;28.56;24.43;99904.50;4974356;28;887;-54
2021/09/05 12:38:13;;;;;;;;;;;;;;;28.33;24.82;99907.44;4972600;28;874;-55
2021/09/05 12:40:41;;;;;;;;;;;;;;;28.14;24.66;99898.72;4974449;28;931;-54
2021/09/05 12:43:09;;;;;;;;;;;;;;;28.02;24.97;99895.16;4974399;28;870;-55
2021/09/05 12:45:36;;;;;;;;;;;;;;;27.81;25.18;99899.59;4974345;28;894;-54
2021/09/05 12:48:33;;;;;;;;;;;;;;;27.52;25.52;99898.13;4974208;28;863;-54
2021/09/05 12:51:03;;;;;;;;;;;;;;;27.22;26.01;99895.81;4914535;29;1166;-53
2021/09/05 12:53:30;;;;;;;;;;;;;;;26.98;25.88;99902.75;4914539;29;1311;-54
2021/09/05 12:55:57;;;;;;;;;;;;;;;26.67;26.80;99901.69;4898656;29;947;-53
2021/09/05 12:58:23;;;;;;;;;;;;;;;26.69;26.84;99904.00;4914504;29;1894;-54
2021/09/05 13:00:49;;;;;;;;;;;;;;;26.63;26.37;99900.41;4914496;29;1066;-52
2021/09/05 13:03:16;;;;;;;;;;;;;;;26.53;26.54;99914.00;4914480;29;840;-52
2021/09/05 13:05:44;;;;;;;;;;;;;;;26.44;26.38;99908.56;4914397;29;871;-54
2021/09/05 13:08:10;;;;;;;;;;;;;;;26.37;26.36;99912.66;4914113;29;999;-52
2021/09/05 13:10:37;;;;;;;;;;;;;;;26.63;26.28;99906.06;4914339;29;883;-52
2021/09/05 13:13:04;;;;;;;;;;;;;;;26.65;26.25;99909.13;4914222;29;831;-53
2021/09/05 13:15:31;;;;;;;;;;;;;;;26.74;26.94;99899.66;4914073;29;1235;-53
2021/09/05 13:17:58;;;;;;;;;;;;;;;26.77;26.86;99901.44;4914043;29;1584;-54
2021/09/05 13:20:25;;;;;;;;;;;;;;;26.87;27.17;99909.19;4914100;29;1970;-53
2021/09/05 13:22:51;;;;;;;;;;;;;;;26.69;27.58;99904.00;4914336;29;925;-49
2021/09/05 13:25:17;;;;;;;;;;;;;;;26.49;27.62;99916.28;4913942;29;933;-54